sensor_id;sensor_type;location;lat;lon;timestamp;pressure;altitude;pressure_sealevel;temperature;humidity
13934;BME280;7039;52.168;9.866;2023-04-29T00:00:41;100026.09;;;14.13;89.24
13934;BME280;7039;52.168;9.866;2023-04-29T00:03:07;100023.56;;;14.12;90.08
13934;BME280;7039;52.168;9.866;2023-04-29T00:05:34;100033.78;;;14.28;90.28
13934;BME280;7039;52.168;9.866;2023-04-29T00:08:00;100024.88;;;14.06;91.97
13934;BME280;7039;52.168;9.866;2023-04-29T00:10:29;100016.84;;;13.84;92.77
13934;BME280;7039;52.168;9.866;2023-04-29T00:12:56;100017.53;;;13.62;95.22
13934;BME280;7039;52.168;9.866;2023-04-29T00:15:23;100027.31;;;13.47;96.01
13934;BME280;7039;52.168;9.866;2023-04-29T00:17:49;100030.56;;;13.38;96.24
13934;BME280;7039;52.168;9.866;2023-04-29T00:20:16;100029.59;;;13.39;96.41
13934;BME280;7039;52.168;9.866;2023-04-29T00:22:43;100037.78;;;13.34;96.39
13934;BME280;7039;52.168;9.866;2023-04-29T00:25:09;100032.94;;;13.28;97.22
13934;BME280;7039;52.168;9.866;2023-04-29T00:27:36;100041.03;;;13.38;96.18
13934;BME280;7039;52.168;9.866;2023-04-29T00:30:06;100043.34;;;13.29;96.13
13934;BME280;7039;52.168;9.866;2023-04-29T00:32:33;100044.28;;;13.41;94.85
13934;BME280;7039;52.168;9.866;2023-04-29T00:35:00;100043.44;;;13.41;94.28
13934;BME280;7039;52.168;9.866;2023-04-29T00:37:27;100036.16;;;13.19;94.11
13934;BME280;7039;52.168;9.866;2023-04-29T00:39:53;100039.53;;;13.21;93.82
13934;BME280;7039;52.168;9.866;2023-04-29T00:42:20;100041.81;;;13.12;93.34
13934;BME280;7039;52.168;9.866;2023-04-29T00:44:47;100041.28;;;13.07;92.83
13934;BME280;7039;52.168;9.866;2023-04-29T00:47:14;100039.94;;;13.14;92.80
13934;BME280;7039;52.168;9.866;2023-04-29T00:49:42;100050.81;;;13.21;92.47
13934;BME280;7039;52.168;9.866;2023-04-29T00:52:10;100051.94;;;13.31;91.89
13934;BME280;7039;52.168;9.866;2023-04-29T00:54:37;100053.81;;;13.29;92.23
13934;BME280;7039;52.168;9.866;2023-04-29T00:57:04;100057.53;;;13.25;92.05
13934;BME280;7039;52.168;9.866;2023-04-29T00:59:32;100064.22;;;13.16;92.48
13934;BME280;7039;52.168;9.866;2023-04-29T01:01:59;100065.06;;;13.17;92.99
13934;BME280;7039;52.168;9.866;2023-04-29T01:04:27;100061.31;;;13.21;93.03
13934;BME280;7039;52.168;9.866;2023-04-29T01:07:02;100072.41;;;13.25;93.27
13934;BME280;7039;52.168;9.866;2023-04-29T01:09:43;100076.19;;;13.21;93.18
13934;BME280;7039;52.168;9.866;2023-04-29T01:12:20;100078.25;;;13.03;93.40
13934;BME280;7039;52.168;9.866;2023-04-29T01:14:51;100068.19;;;12.96;93.85
13934;BME280;7039;52.168;9.866;2023-04-29T01:17:20;100073.97;;;13.02;94.25
13934;BME280;7039;52.168;9.866;2023-04-29T01:19:54;100077.31;;;13.04;94.22
13934;BME280;7039;52.168;9.866;2023-04-29T01:22:22;100083.75;;;12.85;94.23
13934;BME280;7039;52.168;9.866;2023-04-29T01:24:49;100087.75;;;12.91;94.71
13934;BME280;7039;52.168;9.866;2023-04-29T01:27:27;100091.13;;;12.93;94.56
13934;BME280;7039;52.168;9.866;2023-04-29T01:30:00;100087.63;;;12.80;95.25
13934;BME280;7039;52.168;9.866;2023-04-29T01:32:39;100094.00;;;12.75;95.39
13934;BME280;7039;52.168;9.866;2023-04-29T01:35:14;100089.72;;;12.87;94.57
13934;BME280;7039;52.168;9.866;2023-04-29T01:37:51;100094.22;;;12.85;94.64
13934;BME280;7039;52.168;9.866;2023-04-29T01:40:25;100089.13;;;12.96;94.66
13934;BME280;7039;52.168;9.866;2023-04-29T01:42:57;100093.53;;;12.96;93.90
13934;BME280;7039;52.168;9.866;2023-04-29T01:45:26;100095.88;;;12.73;94.69
13934;BME280;7039;52.168;9.866;2023-04-29T01:47:54;100094.13;;;12.74;94.58
13934;BME280;7039;52.168;9.866;2023-04-29T01:50:21;100104.44;;;12.90;93.96
13934;BME280;7039;52.168;9.866;2023-04-29T01:52:47;100110.28;;;12.66;94.19
13934;BME280;7039;52.168;9.866;2023-04-29T01:55:14;100096.75;;;12.74;93.97
13934;BME280;7039;52.168;9.866;2023-04-29T01:57:42;100108.03;;;12.74;94.14
13934;BME280;7039;52.168;9.866;2023-04-29T02:00:10;100112.53;;;12.72;93.65
13934;BME280;7039;52.168;9.866;2023-04-29T02:02:36;100113.28;;;12.60;93.97
13934;BME280;7039;52.168;9.866;2023-04-29T02:05:03;100110.06;;;12.57;94.04
13934;BME280;7039;52.168;9.866;2023-04-29T02:07:30;100118.19;;;12.79;93.13
13934;BME280;7039;52.168;9.866;2023-04-29T02:09:56;100119.13;;;12.78;93.00
13934;BME280;7039;52.168;9.866;2023-04-29T02:12:23;100111.53;;;12.61;93.46
13934;BME280;7039;52.168;9.866;2023-04-29T02:14:52;100132.34;;;12.77;92.82
13934;BME280;7039;52.168;9.866;2023-04-29T02:17:19;100134.19;;;12.74;92.94
13934;BME280;7039;52.168;9.866;2023-04-29T02:19:45;100128.13;;;12.74;92.65
13934;BME280;7039;52.168;9.866;2023-04-29T02:22:11;100126.22;;;12.76;92.37
13934;BME280;7039;52.168;9.866;2023-04-29T02:24:39;100134.19;;;12.74;92.24
13934;BME280;7039;52.168;9.866;2023-04-29T02:27:05;100136.22;;;12.84;92.31
13934;BME280;7039;52.168;9.866;2023-04-29T02:29:32;100129.13;;;12.59;92.65
13934;BME280;7039;52.168;9.866;2023-04-29T02:32:00;100141.25;;;12.60;93.75
13934;BME280;7039;52.168;9.866;2023-04-29T02:34:26;100135.16;;;12.32;95.50
13934;BME280;7039;52.168;9.866;2023-04-29T02:36:53;100136.19;;;12.29;96.46
13934;BME280;7039;52.168;9.866;2023-04-29T02:39:19;100144.19;;;12.41;96.17
13934;BME280;7039;52.168;9.866;2023-04-29T02:41:46;100139.03;;;12.53;95.38
13934;BME280;7039;52.168;9.866;2023-04-29T02:44:12;100148.13;;;12.19;96.71
13934;BME280;7039;52.168;9.866;2023-04-29T02:46:39;100143.66;;;12.36;96.45
13934;BME280;7039;52.168;9.866;2023-04-29T02:49:11;100147.41;;;12.31;96.52
13934;BME280;7039;52.168;9.866;2023-04-29T02:51:37;100150.28;;;12.27;96.24
13934;BME280;7039;52.168;9.866;2023-04-29T02:54:04;100150.47;;;12.24;96.90
13934;BME280;7039;52.168;9.866;2023-04-29T02:56:30;100161.16;;;12.06;97.54
13934;BME280;7039;52.168;9.866;2023-04-29T02:58:57;100147.69;;;11.98;98.95
13934;BME280;7039;52.168;9.866;2023-04-29T03:01:23;100157.59;;;12.07;98.52
13934;BME280;7039;52.168;9.866;2023-04-29T03:03:50;100157.22;;;12.14;98.53
13934;BME280;7039;52.168;9.866;2023-04-29T03:06:19;100155.50;;;12.12;98.93
13934;BME280;7039;52.168;9.866;2023-04-29T03:08:45;100170.19;;;12.01;100.00
13934;BME280;7039;52.168;9.866;2023-04-29T03:11:12;100159.66;;;12.02;100.00
13934;BME280;7039;52.168;9.866;2023-04-29T03:13:38;100160.88;;;12.11;100.00
13934;BME280;7039;52.168;9.866;2023-04-29T03:16:05;100166.28;;;12.22;99.67
13934;BME280;7039;52.168;9.866;2023-04-29T03:18:32;100167.53;;;11.86;100.00
13934;BME280;7039;52.168;9.866;2023-04-29T03:20:59;100168.03;;;12.07;100.00
13934;BME280;7039;52.168;9.866;2023-04-29T03:23:26;100174.69;;;12.13;100.00
13934;BME280;7039;52.168;9.866;2023-04-29T03:25:53;100174.09;;;11.94;100.00
13934;BME280;7039;52.168;9.866;2023-04-29T03:28:19;100180.38;;;11.91;100.00
13934;BME280;7039;52.168;9.866;2023-04-29T03:30:46;100179.47;;;11.76;100.00
13934;BME280;7039;52.168;9.866;2023-04-29T03:33:12;100181.44;;;11.73;100.00
13934;BME280;7039;52.168;9.866;2023-04-29T03:35:39;100183.38;;;11.69;100.00
13934;BME280;7039;52.168;9.866;2023-04-29T03:38:05;100181.75;;;11.97;100.00
13934;BME280;7039;52.168;9.866;2023-04-29T03:40:33;100177.50;;;11.65;100.00
13934;BME280;7039;52.168;9.866;2023-04-29T03:43:00;100186.13;;;11.82;100.00
13934;BME280;7039;52.168;9.866;2023-04-29T03:45:27;100179.38;;;11.78;100.00
13934;BME280;7039;52.168;9.866;2023-04-29T03:47:54;100190.50;;;11.81;100.00
13934;BME280;7039;52.168;9.866;2023-04-29T03:50:21;100188.72;;;11.67;100.00
13934;BME280;7039;52.168;9.866;2023-04-29T03:52:48;100197.69;;;11.78;100.00
13934;BME280;7039;52.168;9.866;2023-04-29T03:55:15;100196.38;;;11.85;100.00
13934;BME280;7039;52.168;9.866;2023-04-29T03:57:42;100201.97;;;11.79;100.00
13934;BME280;7039;52.168;9.866;2023-04-29T04:00:10;100203.97;;;11.89;99.67
13934;BME280;7039;52.168;9.866;2023-04-29T04:02:36;100211.97;;;11.72;100.00
13934;BME280;7039;52.168;9.866;2023-04-29T04:05:03;100210.59;;;11.65;100.00
13934;BME280;7039;52.168;9.866;2023-04-29T04:07:30;100217.63;;;11.64;100.00
13934;BME280;7039;52.168;9.866;2023-04-29T04:09:56;100223.59;;;11.66;100.00
13934;BME280;7039;52.168;9.866;2023-04-29T04:12:23;100221.31;;;11.60;100.00
13934;BME280;7039;52.168;9.866;2023-04-29T04:14:50;100233.03;;;11.39;100.00
13934;BME280;7039;52.168;9.866;2023-04-29T04:17:18;100244.53;;;11.50;100.00
13934;BME280;7039;52.168;9.866;2023-04-29T04:19:44;100247.91;;;11.53;100.00
13934;BME280;7039;52.168;9.866;2023-04-29T04:22:11;100247.94;;;11.37;100.00
13934;BME280;7039;52.168;9.866;2023-04-29T04:24:37;100252.16;;;11.39;100.00
13934;BME280;7039;52.168;9.866;2023-04-29T04:27:04;100263.56;;;11.53;99.59
13934;BME280;7039;52.168;9.866;2023-04-29T04:29:31;100265.88;;;11.43;99.92
13934;BME280;7039;52.168;9.866;2023-04-29T04:31:59;100265.81;;;11.28;100.00
13934;BME280;7039;52.168;9.866;2023-04-29T04:34:25;100267.44;;;11.31;100.00
13934;BME280;7039;52.168;9.866;2023-04-29T04:36:51;100268.59;;;11.25;100.00
13934;BME280;7039;52.168;9.866;2023-04-29T04:39:18;100289.66;;;11.22;99.85
13934;BME280;7039;52.168;9.866;2023-04-29T04:41:44;100281.31;;;11.16;99.60
13934;BME280;7039;52.168;9.866;2023-04-29T04:44:11;100291.59;;;11.19;99.97
13934;BME280;7039;52.168;9.866;2023-04-29T04:46:38;100280.88;;;11.23;99.13
13934;BME280;7039;52.168;9.866;2023-04-29T04:49:06;100301.19;;;11.18;99.79
13934;BME280;7039;52.168;9.866;2023-04-29T04:51:33;100296.81;;;11.19;99.47
13934;BME280;7039;52.168;9.866;2023-04-29T04:53:59;100305.91;;;11.12;99.08
13934;BME280;7039;52.168;9.866;2023-04-29T04:56:25;100314.00;;;11.23;98.75
13934;BME280;7039;52.168;9.866;2023-04-29T04:58:52;100313.22;;;11.37;98.01
13934;BME280;7039;52.168;9.866;2023-04-29T05:01:18;100320.81;;;11.25;98.13
13934;BME280;7039;52.168;9.866;2023-04-29T05:03:45;100326.28;;;11.37;97.87
13934;BME280;7039;52.168;9.866;2023-04-29T05:06:13;100326.28;;;11.21;97.94
13934;BME280;7039;52.168;9.866;2023-04-29T05:08:40;100323.41;;;11.41;97.02
13934;BME280;7039;52.168;9.866;2023-04-29T05:11:14;100335.56;;;11.42;96.41
13934;BME280;7039;52.168;9.866;2023-04-29T05:13:41;100337.56;;;11.21;97.70
13934;BME280;7039;52.168;9.866;2023-04-29T05:16:07;100344.06;;;11.14;98.43
13934;BME280;7039;52.168;9.866;2023-04-29T05:18:34;100349.72;;;11.22;97.71
13934;BME280;7039;52.168;9.866;2023-04-29T05:21:00;100350.22;;;11.29;97.67
13934;BME280;7039;52.168;9.866;2023-04-29T05:23:28;100340.28;;;11.20;98.26
13934;BME280;7039;52.168;9.866;2023-04-29T05:25:54;100349.97;;;11.18;98.00
13934;BME280;7039;52.168;9.866;2023-04-29T05:28:21;100350.63;;;11.37;97.24
13934;BME280;7039;52.168;9.866;2023-04-29T05:30:49;100356.34;;;11.44;96.85
13934;BME280;7039;52.168;9.866;2023-04-29T05:33:16;100358.88;;;11.29;96.85
13934;BME280;7039;52.168;9.866;2023-04-29T05:35:43;100351.63;;;11.03;97.82
13934;BME280;7039;52.168;9.866;2023-04-29T05:38:09;100366.19;;;11.07;97.69
13934;BME280;7039;52.168;9.866;2023-04-29T05:40:37;100361.66;;;11.26;96.86
13934;BME280;7039;52.168;9.866;2023-04-29T05:43:04;100374.63;;;11.28;97.00
13934;BME280;7039;52.168;9.866;2023-04-29T05:45:31;100375.06;;;11.36;96.54
13934;BME280;7039;52.168;9.866;2023-04-29T05:47:58;100379.19;;;11.24;96.73
13934;BME280;7039;52.168;9.866;2023-04-29T05:50:24;100382.63;;;11.09;97.29
13934;BME280;7039;52.168;9.866;2023-04-29T05:52:50;100372.97;;;10.78;98.36
13934;BME280;7039;52.168;9.866;2023-04-29T05:55:19;100389.25;;;11.15;97.72
13934;BME280;7039;52.168;9.866;2023-04-29T05:57:46;100383.28;;;11.28;96.69
13934;BME280;7039;52.168;9.866;2023-04-29T06:00:13;100383.53;;;11.08;97.60
13934;BME280;7039;52.168;9.866;2023-04-29T06:02:40;100396.00;;;11.19;97.52
13934;BME280;7039;52.168;9.866;2023-04-29T06:05:07;100399.38;;;11.21;97.46
13934;BME280;7039;52.168;9.866;2023-04-29T06:07:34;100398.94;;;11.13;97.79
13934;BME280;7039;52.168;9.866;2023-04-29T06:10:00;100408.78;;;11.07;98.11
13934;BME280;7039;52.168;9.866;2023-04-29T06:12:27;100411.50;;;11.06;97.55
13934;BME280;7039;52.168;9.866;2023-04-29T06:14:56;100413.13;;;10.91;98.37
13934;BME280;7039;52.168;9.866;2023-04-29T06:17:23;100411.50;;;11.06;97.94
13934;BME280;7039;52.168;9.866;2023-04-29T06:19:49;100414.44;;;11.00;97.91
13934;BME280;7039;52.168;9.866;2023-04-29T06:22:16;100426.06;;;11.10;97.09
13934;BME280;7039;52.168;9.866;2023-04-29T06:24:42;100432.22;;;11.09;95.92
13934;BME280;7039;52.168;9.866;2023-04-29T06:27:08;100431.41;;;10.91;95.88
13934;BME280;7039;52.168;9.866;2023-04-29T06:29:35;100437.88;;;10.84;97.09
13934;BME280;7039;52.168;9.866;2023-04-29T06:32:03;100439.69;;;10.99;96.99
13934;BME280;7039;52.168;9.866;2023-04-29T06:34:30;100443.91;;;11.02;95.86
13934;BME280;7039;52.168;9.866;2023-04-29T06:36:56;100442.63;;;10.76;96.49
13934;BME280;7039;52.168;9.866;2023-04-29T06:39:22;100455.13;;;10.86;97.28
13934;BME280;7039;52.168;9.866;2023-04-29T06:41:49;100449.56;;;10.77;97.08
13934;BME280;7039;52.168;9.866;2023-04-29T06:44:16;100452.28;;;10.91;96.93
13934;BME280;7039;52.168;9.866;2023-04-29T06:46:43;100465.56;;;10.86;96.12
13934;BME280;7039;52.168;9.866;2023-04-29T06:49:11;100470.56;;;11.24;95.42
13934;BME280;7039;52.168;9.866;2023-04-29T06:51:37;100476.13;;;11.34;94.64
13934;BME280;7039;52.168;9.866;2023-04-29T06:54:04;100485.00;;;11.14;94.27
13934;BME280;7039;52.168;9.866;2023-04-29T06:56:30;100487.78;;;11.11;94.41
13934;BME280;7039;52.168;9.866;2023-04-29T06:58:57;100487.84;;;11.10;94.19
13934;BME280;7039;52.168;9.866;2023-04-29T07:01:23;100501.16;;;11.05;94.12
13934;BME280;7039;52.168;9.866;2023-04-29T07:03:50;100505.66;;;11.19;94.10
13934;BME280;7039;52.168;9.866;2023-04-29T07:06:17;100508.44;;;11.16;93.72
13934;BME280;7039;52.168;9.866;2023-04-29T07:08:44;100512.28;;;10.91;94.96
13934;BME280;7039;52.168;9.866;2023-04-29T07:11:10;100527.25;;;11.22;94.49
13934;BME280;7039;52.168;9.866;2023-04-29T07:13:37;100527.53;;;11.34;93.71
13934;BME280;7039;52.168;9.866;2023-04-29T07:16:04;100532.28;;;11.25;93.57
13934;BME280;7039;52.168;9.866;2023-04-29T07:18:30;100542.13;;;11.03;93.96
13934;BME280;7039;52.168;9.866;2023-04-29T07:21:00;100543.53;;;10.93;95.46
13934;BME280;7039;52.168;9.866;2023-04-29T07:23:27;100544.38;;;11.11;94.41
13934;BME280;7039;52.168;9.866;2023-04-29T07:25:54;100553.59;;;11.00;94.55
13934;BME280;7039;52.168;9.866;2023-04-29T07:28:20;100559.34;;;10.90;94.91
13934;BME280;7039;52.168;9.866;2023-04-29T07:30:47;100565.47;;;10.54;96.18
13934;BME280;7039;52.168;9.866;2023-04-29T07:33:13;100577.59;;;10.90;96.24
13934;BME280;7039;52.168;9.866;2023-04-29T07:35:40;100570.63;;;10.90;96.19
13934;BME280;7039;52.168;9.866;2023-04-29T07:38:08;100578.00;;;10.99;95.22
13934;BME280;7039;52.168;9.866;2023-04-29T07:40:36;100576.25;;;11.17;94.59
13934;BME280;7039;52.168;9.866;2023-04-29T07:43:03;100584.97;;;11.34;93.47
13934;BME280;7039;52.168;9.866;2023-04-29T07:45:31;100577.38;;;11.29;93.38
13934;BME280;7039;52.168;9.866;2023-04-29T07:47:57;100586.94;;;11.28;94.08
13934;BME280;7039;52.168;9.866;2023-04-29T07:50:24;100596.00;;;11.89;92.02
13934;BME280;7039;52.168;9.866;2023-04-29T07:52:50;100599.81;;;12.00;91.40
13934;BME280;7039;52.168;9.866;2023-04-29T07:55:19;100601.00;;;12.10;89.69
13934;BME280;7039;52.168;9.866;2023-04-29T07:57:47;100593.06;;;11.78;88.82
13934;BME280;7039;52.168;9.866;2023-04-29T08:00:13;100607.41;;;12.04;89.58
13934;BME280;7039;52.168;9.866;2023-04-29T08:02:40;100601.34;;;12.20;89.06
13934;BME280;7039;52.168;9.866;2023-04-29T08:05:07;100600.91;;;12.27;89.08
13934;BME280;7039;52.168;9.866;2023-04-29T08:07:34;100607.06;;;12.58;85.94
13934;BME280;7039;52.168;9.866;2023-04-29T08:10:00;100610.38;;;12.46;85.49
13934;BME280;7039;52.168;9.866;2023-04-29T08:12:27;100610.41;;;12.76;83.42
13934;BME280;7039;52.168;9.866;2023-04-29T08:14:55;100621.97;;;12.88;84.06
13934;BME280;7039;52.168;9.866;2023-04-29T08:17:21;100608.00;;;12.41;83.53
13934;BME280;7039;52.168;9.866;2023-04-29T08:19:47;100615.19;;;12.53;85.15
13934;BME280;7039;52.168;9.866;2023-04-29T08:22:14;100620.09;;;12.90;82.90
13934;BME280;7039;52.168;9.866;2023-04-29T08:24:41;100618.56;;;13.02;82.65
13934;BME280;7039;52.168;9.866;2023-04-29T08:27:09;100628.16;;;13.01;81.87
13934;BME280;7039;52.168;9.866;2023-04-29T08:29:35;100625.56;;;12.85;81.08
13934;BME280;7039;52.168;9.866;2023-04-29T08:32:04;100637.00;;;12.68;81.33
13934;BME280;7039;52.168;9.866;2023-04-29T08:34:30;100634.31;;;12.70;82.01
13934;BME280;7039;52.168;9.866;2023-04-29T08:36:57;100635.28;;;12.99;80.67
13934;BME280;7039;52.168;9.866;2023-04-29T08:39:24;100642.50;;;13.10;79.83
13934;BME280;7039;52.168;9.866;2023-04-29T08:41:50;100640.28;;;12.88;78.81
13934;BME280;7039;52.168;9.866;2023-04-29T08:44:18;100646.28;;;13.20;80.47
13934;BME280;7039;52.168;9.866;2023-04-29T08:46:46;100654.16;;;13.20;78.11
13934;BME280;7039;52.168;9.866;2023-04-29T08:49:14;100658.88;;;13.29;78.00
13934;BME280;7039;52.168;9.866;2023-04-29T08:51:41;100651.84;;;13.89;77.38
13934;BME280;7039;52.168;9.866;2023-04-29T08:54:07;100656.69;;;13.66;76.09
13934;BME280;7039;52.168;9.866;2023-04-29T08:56:34;100661.50;;;13.88;76.39
13934;BME280;7039;52.168;9.866;2023-04-29T08:59:03;100660.69;;;13.57;76.91
13934;BME280;7039;52.168;9.866;2023-04-29T09:01:31;100663.03;;;13.62;76.93
13934;BME280;7039;52.168;9.866;2023-04-29T09:04:06;100666.63;;;14.18;76.11
13934;BME280;7039;52.168;9.866;2023-04-29T09:06:36;100666.81;;;13.72;74.86
13934;BME280;7039;52.168;9.866;2023-04-29T09:09:03;100665.97;;;13.72;75.31
13934;BME280;7039;52.168;9.866;2023-04-29T09:11:31;100670.34;;;14.43;73.66
13934;BME280;7039;52.168;9.866;2023-04-29T09:13:58;100673.22;;;14.53;73.12
13934;BME280;7039;52.168;9.866;2023-04-29T09:16:25;100673.69;;;14.04;73.32
13934;BME280;7039;52.168;9.866;2023-04-29T09:18:52;100672.47;;;14.51;72.25
13934;BME280;7039;52.168;9.866;2023-04-29T09:21:20;100679.00;;;14.31;71.97
13934;BME280;7039;52.168;9.866;2023-04-29T09:23:49;100688.34;;;14.20;71.79
13934;BME280;7039;52.168;9.866;2023-04-29T09:26:16;100675.44;;;14.03;71.33
13934;BME280;7039;52.168;9.866;2023-04-29T09:28:43;100685.19;;;14.15;71.22
13934;BME280;7039;52.168;9.866;2023-04-29T09:31:12;100681.31;;;14.21;73.14
13934;BME280;7039;52.168;9.866;2023-04-29T09:33:51;100692.94;;;14.17;71.91
13934;BME280;7039;52.168;9.866;2023-04-29T09:36:35;100700.25;;;14.12;70.25
13934;BME280;7039;52.168;9.866;2023-04-29T09:39:04;100700.06;;;14.29;71.06
13934;BME280;7039;52.168;9.866;2023-04-29T09:41:36;100696.63;;;14.29;71.06
13934;BME280;7039;52.168;9.866;2023-04-29T09:44:02;100690.97;;;14.20;70.99
13934;BME280;7039;52.168;9.866;2023-04-29T09:46:31;100693.13;;;14.14;70.42
13934;BME280;7039;52.168;9.866;2023-04-29T09:48:58;100696.22;;;14.20;69.27
13934;BME280;7039;52.168;9.866;2023-04-29T09:51:25;100703.72;;;14.27;70.69
13934;BME280;7039;52.168;9.866;2023-04-29T09:53:51;100689.66;;;14.56;68.87
13934;BME280;7039;52.168;9.866;2023-04-29T09:56:19;100692.38;;;14.55;69.12
13934;BME280;7039;52.168;9.866;2023-04-29T09:58:46;100693.22;;;14.41;67.92
13934;BME280;7039;52.168;9.866;2023-04-29T10:01:13;100698.00;;;14.63;68.00
13934;BME280;7039;52.168;9.866;2023-04-29T10:03:44;100699.19;;;14.72;67.29
13934;BME280;7039;52.168;9.866;2023-04-29T10:06:11;100696.44;;;14.88;68.21
13934;BME280;7039;52.168;9.866;2023-04-29T10:08:38;100698.63;;;15.21;66.83
13934;BME280;7039;52.168;9.866;2023-04-29T10:11:06;100702.88;;;15.36;66.20
13934;BME280;7039;52.168;9.866;2023-04-29T10:13:34;100707.00;;;15.40;68.07
13934;BME280;7039;52.168;9.866;2023-04-29T10:16:10;100698.13;;;15.29;67.99
13934;BME280;7039;52.168;9.866;2023-04-29T10:18:40;100705.84;;;15.44;67.62
13934;BME280;7039;52.168;9.866;2023-04-29T10:21:08;100703.47;;;15.67;67.59
13934;BME280;7039;52.168;9.866;2023-04-29T10:23:35;100702.69;;;15.52;66.95
13934;BME280;7039;52.168;9.866;2023-04-29T10:26:02;100718.72;;;15.22;68.28
13934;BME280;7039;52.168;9.866;2023-04-29T10:28:30;100707.03;;;14.86;68.34
13934;BME280;7039;52.168;9.866;2023-04-29T10:31:00;100712.06;;;14.19;69.81
13934;BME280;7039;52.168;9.866;2023-04-29T10:33:29;100722.91;;;13.98;70.75
13934;BME280;7039;52.168;9.866;2023-04-29T10:35:57;100727.03;;;13.74;72.23
13934;BME280;7039;52.168;9.866;2023-04-29T10:38:27;100726.88;;;14.06;72.44
13934;BME280;7039;52.168;9.866;2023-04-29T10:40:56;100721.03;;;14.72;70.59
13934;BME280;7039;52.168;9.866;2023-04-29T10:43:24;100720.66;;;14.78;71.33
13934;BME280;7039;52.168;9.866;2023-04-29T10:46:16;100724.28;;;14.90;68.50
13934;BME280;7039;52.168;9.866;2023-04-29T10:48:43;100733.28;;;15.13;66.29
13934;BME280;7039;52.168;9.866;2023-04-29T10:51:09;100726.44;;;14.83;66.55
13934;BME280;7039;52.168;9.866;2023-04-29T10:53:56;100724.66;;;14.84;68.06
13934;BME280;7039;52.168;9.866;2023-04-29T10:56:34;100735.38;;;15.35;67.05
13934;BME280;7039;52.168;9.866;2023-04-29T10:59:01;100733.56;;;15.36;64.37
13934;BME280;7039;52.168;9.866;2023-04-29T11:01:41;100738.19;;;15.32;65.45
13934;BME280;7039;52.168;9.866;2023-04-29T11:04:08;100735.31;;;14.95;65.34
13934;BME280;7039;52.168;9.866;2023-04-29T11:06:40;100732.75;;;15.48;66.05
13934;BME280;7039;52.168;9.866;2023-04-29T11:09:09;100734.25;;;15.52;65.49
13934;BME280;7039;52.168;9.866;2023-04-29T11:11:40;100734.16;;;15.66;64.41
13934;BME280;7039;52.168;9.866;2023-04-29T11:14:07;100727.13;;;15.67;66.31
13934;BME280;7039;52.168;9.866;2023-04-29T11:16:34;100735.16;;;15.38;64.01
13934;BME280;7039;52.168;9.866;2023-04-29T11:19:04;100735.78;;;15.82;64.44
13934;BME280;7039;52.168;9.866;2023-04-29T11:21:33;100735.47;;;16.38;64.36
13934;BME280;7039;52.168;9.866;2023-04-29T11:24:00;100741.69;;;16.74;63.36
13934;BME280;7039;52.168;9.866;2023-04-29T11:26:27;100735.78;;;16.20;62.17
13934;BME280;7039;52.168;9.866;2023-04-29T11:28:55;100736.28;;;16.51;61.22
13934;BME280;7039;52.168;9.866;2023-04-29T11:31:25;100736.75;;;16.82;62.10
13934;BME280;7039;52.168;9.866;2023-04-29T11:33:52;100731.09;;;16.62;60.80
13934;BME280;7039;52.168;9.866;2023-04-29T11:36:20;100730.84;;;16.28;61.25
13934;BME280;7039;52.168;9.866;2023-04-29T11:38:47;100734.09;;;15.81;59.98
13934;BME280;7039;52.168;9.866;2023-04-29T11:41:13;100725.16;;;15.83;60.08
13934;BME280;7039;52.168;9.866;2023-04-29T11:43:40;100741.06;;;15.42;60.60
13934;BME280;7039;52.168;9.866;2023-04-29T11:46:11;100743.63;;;15.56;62.91
13934;BME280;7039;52.168;9.866;2023-04-29T11:48:45;100749.03;;;15.80;61.26
13934;BME280;7039;52.168;9.866;2023-04-29T11:51:12;100742.31;;;15.89;61.64
13934;BME280;7039;52.168;9.866;2023-04-29T11:53:40;100753.47;;;15.40;60.79
13934;BME280;7039;52.168;9.866;2023-04-29T11:56:07;100745.38;;;15.16;61.96
13934;BME280;7039;52.168;9.866;2023-04-29T11:58:34;100751.13;;;15.35;61.46
13934;BME280;7039;52.168;9.866;2023-04-29T12:01:01;100746.66;;;15.23;60.71
13934;BME280;7039;52.168;9.866;2023-04-29T12:03:28;100755.41;;;15.63;59.07
13934;BME280;7039;52.168;9.866;2023-04-29T12:05:55;100754.28;;;15.80;58.70
13934;BME280;7039;52.168;9.866;2023-04-29T12:08:22;100758.81;;;16.17;58.02
13934;BME280;7039;52.168;9.866;2023-04-29T12:10:51;100759.16;;;16.25;58.26
13934;BME280;7039;52.168;9.866;2023-04-29T12:13:19;100752.19;;;16.49;56.98
13934;BME280;7039;52.168;9.866;2023-04-29T12:15:47;100756.03;;;16.82;56.58
13934;BME280;7039;52.168;9.866;2023-04-29T12:18:15;100754.94;;;16.85;57.20
13934;BME280;7039;52.168;9.866;2023-04-29T12:20:42;100755.06;;;16.70;57.04
13934;BME280;7039;52.168;9.866;2023-04-29T12:23:11;100755.75;;;16.98;57.12
13934;BME280;7039;52.168;9.866;2023-04-29T12:25:38;100758.69;;;17.30;56.23
13934;BME280;7039;52.168;9.866;2023-04-29T12:28:11;100752.59;;;17.41;55.95
13934;BME280;7039;52.168;9.866;2023-04-29T12:30:37;100757.06;;;16.93;57.68
13934;BME280;7039;52.168;9.866;2023-04-29T12:33:04;100758.31;;;16.87;58.21
13934;BME280;7039;52.168;9.866;2023-04-29T12:35:33;100760.88;;;17.13;58.35
13934;BME280;7039;52.168;9.866;2023-04-29T12:37:59;100754.53;;;17.15;58.08
13934;BME280;7039;52.168;9.866;2023-04-29T12:40:26;100757.38;;;16.88;56.36
13934;BME280;7039;52.168;9.866;2023-04-29T12:42:53;100756.13;;;16.68;57.48
13934;BME280;7039;52.168;9.866;2023-04-29T12:45:28;100764.28;;;16.39;58.70
13934;BME280;7039;52.168;9.866;2023-04-29T12:47:55;100759.28;;;16.11;58.11
13934;BME280;7039;52.168;9.866;2023-04-29T12:50:28;100767.78;;;16.27;58.24
13934;BME280;7039;52.168;9.866;2023-04-29T12:52:55;100761.56;;;16.28;58.31
13934;BME280;7039;52.168;9.866;2023-04-29T12:55:22;100765.28;;;16.75;57.33
13934;BME280;7039;52.168;9.866;2023-04-29T12:57:48;100766.22;;;16.24;57.22
13934;BME280;7039;52.168;9.866;2023-04-29T13:00:15;100765.25;;;16.51;57.84
13934;BME280;7039;52.168;9.866;2023-04-29T13:02:43;100759.97;;;16.51;58.77